This is the latest recevied weather packets stored in our database for station/object K6LCM-13. If no packets are shown the sender has not sent any weather packets the latest 1 day(s).
| Time | Temp. | Humidity | Pressure | Rain* | Wind** | Luminosity | Snow |
|---|---|---|---|---|---|---|---|
| 1778099967 | 18.89° C | 77% | 1018 hPa | 0 mm | - | - | - |
| 1778097566 | 18.33° C | 76% | 1018.4 hPa | 0 mm | - | - | - |
| 1778095406 | 18.33° C | 75% | 1018.4 hPa | 0 mm | - | - | - |
| 1778091086 | 17.78° C | 79% | 1018.8 hPa | 0 mm | - | - | - |
| 1778087846 | 17.22° C | 82% | 1018.8 hPa | 0 mm | - | - | - |
| 1778086226 | 16.11° C | 84% | 1018.5 hPa | 0 mm | - | - | - |
| 1778085686 | 16.11° C | 83% | 1018.5 hPa | 0 mm | - | - | - |
| 1778079614 | 14.44° C | 91% | 1018.3 hPa | 0 mm | - | - | - |
| 1778078534 | 13.89° C | 93% | 1018.3 hPa | 0 mm | - | - | - |
| 1778076374 | 12.78° C | 96% | 1018 hPa | 0 mm | - | - | - |
| 1778070347 | 11.67° C | 94% | 1017.3 hPa | 0 mm | - | - | - |
| 1778069267 | 11.11° C | 94% | 1017.2 hPa | 0 mm | - | - | - |
| 1778066752 | 11.67° C | 93% | 1017.2 hPa | 0 mm | - | - | - |
| 1778062972 | 12.22° C | 92% | 1016.8 hPa | 0 mm | - | - | - |
| 1778061892 | 12.78° C | 93% | 1016.9 hPa | 0 mm | - | - | - |
| 1778059732 | 12.78° C | 92% | 1016.8 hPa | 0 mm | - | - | - |
| 1778058112 | 12.78° C | 91% | 1016.9 hPa | 0 mm | - | - | - |
| 1778057572 | 13.33° C | 91% | 1017.1 hPa | 0 mm | - | - | - |
| 1778057032 | 13.33° C | 91% | 1017.2 hPa | 0 mm | - | - | - |
| 1778055412 | 13.33° C | 91% | 1017.3 hPa | 0 mm | - | - | - |
| 1778054872 | 13.33° C | 91% | 1017.2 hPa | 0 mm | - | - | - |
| 1778054332 | 13.33° C | 91% | 1017.1 hPa | 0 mm | - | - | - |
| 1778053580 | 13.33° C | 90% | 1017.1 hPa | 0 mm | - | - | - |
| 1778053039 | 13.33° C | 90% | 1016.9 hPa | 0 mm | - | - | - |
| 1778052499 | 13.33° C | 90% | 1017 hPa | 0 mm | - | - | - |
* Rain latest hour (hover to see other rain measurements)
** Current wind speed in m/s (hover to see current wind gust speed)